Giza Embaba Airport


Codes: HEEM/
Name: Giza Embaba Airport
City: Cairo
Country: Egypt
Elevation: 59 ft.

Photos at Giza Embaba Airport


   Photos courtesy of SpottingLog. You can add your own sightings and photos by signing up for a free trial today.



No photos found.

Weather at Giza Embaba Airport


Time (UTC)DescriptionTempratureWindCloud coverageVisibilityPressureHumidity
17-Jun-2024 06:00Clear Sky26°C9 mph, NE0%10000m1012hPa37%
17-Jun-2024 09:00Clear Sky28°C9 mph, N0%10000m1012hPa31%
17-Jun-2024 12:00Clear Sky34°C7 mph, NW0%10000m1010hPa22%
17-Jun-2024 15:00Clear Sky39°C13 mph, NW0%10000m1007hPa14%
17-Jun-2024 18:00Clear Sky32°C18 mph, N0%10000m1010hPa27%
17-Jun-2024 21:00Clear Sky27°C13 mph, N0%10000m1011hPa50%
18-Jun-2024 00:00Clear Sky25°C9 mph, N0%10000m1010hPa63%
18-Jun-2024 03:00Clear Sky24°C7 mph, N0%10000m1010hPa71%
18-Jun-2024 06:00Clear Sky27°C9 mph, N0%10000m1011hPa56%
18-Jun-2024 09:00Clear Sky34°C9 mph, N0%10000m1010hPa29%
18-Jun-2024 12:00Clear Sky39°C9 mph, N0%10000m1007hPa15%
18-Jun-2024 15:00Clear Sky40°C18 mph, N0%10000m1006hPa12%
18-Jun-2024 18:00Clear Sky32°C18 mph, N0%10000m1009hPa32%
18-Jun-2024 21:00Clear Sky28°C13 mph, N0%10000m1010hPa50%
19-Jun-2024 00:00Clear Sky26°C11 mph, N0%10000m1008hPa65%
19-Jun-2024 03:00Clear Sky24°C9 mph, NE0%10000m1008hPa71%
19-Jun-2024 06:00Clear Sky28°C11 mph, N0%10000m1008hPa51%
19-Jun-2024 09:00Clear Sky35°C9 mph, N0%10000m1007hPa23%
19-Jun-2024 12:00Clear Sky40°C9 mph, N0%10000m1005hPa13%
19-Jun-2024 15:00Clear Sky41°C11 mph, N0%10000m1004hPa11%
19-Jun-2024 18:00Clear Sky33°C16 mph, N0%10000m1008hPa33%
19-Jun-2024 21:00Clear Sky29°C11 mph, N0%10000m1009hPa51%
20-Jun-2024 00:00Clear Sky27°C9 mph, N0%10000m1008hPa58%
20-Jun-2024 03:00Clear Sky26°C7 mph, N0%10000m1008hPa62%
20-Jun-2024 06:00Clear Sky29°C4 mph, N0%10000m1009hPa45%
20-Jun-2024 09:00Clear Sky36°C7 mph, NW0%10000m1008hPa22%
20-Jun-2024 12:00Clear Sky41°C9 mph, NW0%10000m1006hPa12%
20-Jun-2024 15:00Clear Sky41°C13 mph, NW0%10000m1005hPa10%
20-Jun-2024 18:00Clear Sky34°C16 mph, N0%10000m1008hPa27%
20-Jun-2024 21:00Clear Sky30°C9 mph, NE0%10000m1009hPa41%
21-Jun-2024 00:00Clear Sky29°C7 mph, NE0%10000m1008hPa44%
21-Jun-2024 03:00Clear Sky28°C7 mph, NE0%10000m1008hPa45%
21-Jun-2024 06:00Clear Sky33°C7 mph, NE0%10000m1009hPa28%
21-Jun-2024 09:00Clear Sky38°C4 mph, N0%10000m1008hPa18%
21-Jun-2024 12:00Clear Sky41°C11 mph, NW0%10000m1006hPa12%
21-Jun-2024 15:00Clear Sky41°C11 mph, NW0%10000m1005hPa11%
21-Jun-2024 18:00Clear Sky35°C16 mph, NE0%10000m1007hPa26%
21-Jun-2024 21:00Clear Sky31°C11 mph, NE0%10000m1008hPa36%
22-Jun-2024 00:00Clear Sky30°C7 mph, NE0%10000m1007hPa37%
22-Jun-2024 03:00Clear Sky30°C7 mph, NE0%10000m1007hPa34%